Time;durP1;ratioP1;P1;durP2;ratioP2;P2;SDS_P1;SDS_P2;PMS_P1;PMS_P2;Temp;Humidity;BMP_temperature;BMP_pressure;BME280_temperature;BME280_humidity;BME280_pressure;Samples;Min_cycle;Max_cycle;Signal;HPM_P1;HPM_P2
2023/04/01 00:00:56;;;;;;;9.55;5.10;;;9.70;99.90;;;;;;4981696;28;20061;-83
2023/04/01 00:03:22;;;;;;;9.88;5.32;;;9.70;99.90;;;;;;4987772;28;20447;-83
2023/04/01 00:05:48;;;;;;;;;;;9.70;99.90;;;;;;4967809;28;20151;-83
2023/04/01 00:08:14;;;;;;;10.00;5.20;;;9.70;99.90;;;;;;4971490;28;20394;-83
2023/04/01 00:10:40;;;;;;;8.07;5.05;;;9.70;99.90;;;;;;4970790;28;20490;-83
2023/04/01 00:13:06;;;;;;;10.00;5.18;;;9.70;99.90;;;;;;5002975;28;20038;-83
2023/04/01 00:15:33;;;;;;;10.70;5.75;;;9.70;99.90;;;;;;4997654;28;20042;-83
2023/04/01 00:17:59;;;;;;;11.88;5.53;;;9.70;99.90;;;;;;4987589;28;20039;-83
2023/04/01 00:20:25;;;;;;;12.02;6.10;;;9.70;99.90;;;;;;5002795;28;20049;-83
2023/04/01 00:22:51;;;;;;;8.07;4.80;;;9.70;99.90;;;;;;4986062;28;20129;-83
2023/04/01 00:25:17;;;;;;;10.52;5.93;;;9.80;99.90;;;;;;4985397;28;20145;-82
2023/04/01 00:27:43;;;;;;;11.32;5.85;;;9.70;99.90;;;;;;5010542;28;20108;-82
2023/04/01 00:30:09;;;;;;;9.65;5.35;;;9.70;99.90;;;;;;4983553;28;20109;-82
2023/04/01 00:32:35;;;;;;;11.20;5.90;;;9.70;99.90;;;;;;4983800;28;20049;-83
2023/04/01 00:35:01;;;;;;;12.00;5.38;;;9.70;99.90;;;;;;5003769;28;20406;-82
2023/04/01 00:37:28;;;;;;;8.15;4.80;;;9.80;99.90;;;;;;4992694;28;20042;-82
2023/04/01 00:39:53;;;;;;;;;;;9.80;99.90;;;;;;5001643;28;20041;-82
2023/04/01 00:42:19;;;;;;;10.18;5.20;;;9.80;99.90;;;;;;5000979;28;20298;-82
2023/04/01 00:44:51;;;;;;;8.65;4.75;;;9.80;99.90;;;;;;4966980;28;20042;-82
2023/04/01 00:47:17;;;;;;;10.30;5.20;;;9.80;99.90;;;;;;4999366;28;20050;-81
2023/04/01 00:49:48;;;;;;;;;;;9.80;99.90;;;;;;4979707;28;20077;-82
2023/04/01 00:52:17;;;;;;;9.70;4.93;;;9.80;99.90;;;;;;5006633;28;19917;-82
2023/04/01 00:54:47;;;;;;;10.70;5.70;;;9.80;99.90;;;;;;5001987;28;20120;-81
2023/04/01 00:57:19;;;;;;;12.85;5.57;;;9.80;99.90;;;;;;5006094;28;20049;-82
2023/04/01 00:59:49;;;;;;;11.73;5.88;;;9.70;99.90;;;;;;5002933;28;20049;-81
2023/04/01 01:02:18;;;;;;;11.82;6.47;;;9.70;99.90;;;;;;5005944;28;20123;-81
2023/04/01 01:04:45;;;;;;;13.15;6.03;;;9.70;99.90;;;;;;5002006;28;20499;-81
2023/04/01 01:07:37;;;;;;;12.88;6.13;;;9.70;99.90;;;;;;4978475;28;20046;-81
2023/04/01 01:10:06;;;;;;;13.68;5.60;;;9.70;99.90;;;;;;4989752;28;20463;-82
2023/04/01 01:13:04;;;;;;;11.57;5.75;;;9.70;99.90;;;;;;4983886;28;20359;-82
2023/04/01 01:16:04;;;;;;;11.82;5.75;;;9.70;99.90;;;;;;4996527;28;20104;-82
2023/04/01 01:18:40;;;;;;;12.13;6.15;;;9.60;99.90;;;;;;4975209;28;20120;-82
2023/04/01 01:21:27;;;;;;;13.15;6.13;;;9.70;99.90;;;;;;4998003;28;20042;-82
2023/04/01 01:24:13;;;;;;;16.88;6.25;;;9.60;99.90;;;;;;5005768;28;20069;-82
2023/04/01 01:27:11;;;;;;;11.90;6.25;;;9.60;99.90;;;;;;5001011;28;20072;-82
2023/04/01 01:30:19;;;;;;;12.13;5.80;;;9.60;99.90;;;;;;4985721;28;20031;-82
2023/04/01 01:33:03;;;;;;;12.35;5.80;;;9.60;99.90;;;;;;4986340;28;20125;-82
2023/04/01 01:35:38;;;;;;;12.57;6.00;;;9.60;99.90;;;;;;5002137;28;20042;-82
2023/04/01 01:38:17;;;;;;;12.30;6.43;;;9.60;99.90;;;;;;5003896;28;20095;-82
2023/04/01 01:40:48;;;;;;;14.30;7.05;;;9.70;99.90;;;;;;5002629;28;20418;-82
2023/04/01 01:43:18;;;;;;;16.20;6.85;;;9.60;99.90;;;;;;5003495;28;20045;-82
2023/04/01 01:45:48;;;;;;;14.25;7.03;;;9.60;99.90;;;;;;5002018;28;20092;-82
2023/04/01 01:48:16;;;;;;;14.00;6.82;;;9.60;99.90;;;;;;4990091;28;20042;-82
2023/04/01 01:50:44;;;;;;;15.52;7.13;;;9.60;99.90;;;;;;5001149;28;20053;-77
2023/04/01 01:53:12;;;;;;;14.65;6.97;;;9.60;99.90;;;;;;4978516;28;20092;-77
2023/04/01 01:55:42;;;;;;;15.68;6.85;;;9.60;99.90;;;;;;4994645;28;20073;-77
2023/04/01 01:58:22;;;;;;;12.30;6.32;;;9.70;99.90;;;;;;4996462;28;20049;-77
2023/04/01 02:00:57;;;;;;;14.68;6.97;;;9.60;99.90;;;;;;5005151;28;20056;-77
2023/04/01 02:03:25;;;;;;;13.60;6.75;;;9.60;99.90;;;;;;4998130;28;20038;-77
2023/04/01 02:05:54;;;;;;;14.48;7.07;;;9.60;99.90;;;;;;4997970;28;20499;-77
2023/04/01 02:08:26;;;;;;;17.15;6.43;;;9.60;99.90;;;;;;4981944;28;20046;-77
2023/04/01 02:11:06;;;;;;;14.50;6.35;;;9.60;99.90;;;;;;5005366;28;20034;-77
2023/04/01 02:13:47;;;;;;;14.65;6.28;;;9.60;99.90;;;;;;4984246;28;20398;-77
2023/04/01 02:16:20;;;;;;;15.18;6.63;;;9.70;99.90;;;;;;5002616;28;20076;-77
2023/04/01 02:18:49;;;;;;;16.92;6.63;;;9.60;99.90;;;;;;5007518;28;20049;-77
2023/04/01 02:21:16;;;;;;;13.77;7.05;;;9.60;99.90;;;;;;4997353;28;20054;-77
2023/04/01 02:23:42;;;;;;;16.15;7.65;;;9.60;99.90;;;;;;4981724;28;20589;-77
2023/04/01 02:26:11;;;;;;;15.98;7.13;;;9.60;99.90;;;;;;4964791;28;20038;-77
2023/04/01 02:28:38;;;;;;;13.55;6.72;;;9.60;99.90;;;;;;4988529;28;20037;-78
2023/04/01 02:31:04;;;;;;;15.70;6.70;;;9.60;99.90;;;;;;5002383;28;20120;-77
2023/04/01 02:33:31;;;;;;;14.68;6.93;;;9.60;99.90;;;;;;4985565;28;20049;-77
2023/04/01 02:35:58;;;;;;;14.68;6.30;;;9.60;99.90;;;;;;4986424;28;20046;-77
2023/04/01 02:38:23;;;;;;;18.83;6.72;;;9.60;99.90;;;;;;5003937;28;20579;-77
2023/04/01 02:40:56;;;;;;;15.90;6.43;;;9.60;99.90;;;;;;4996548;28;20052;-77
2023/04/01 02:43:21;;;;;;;16.92;6.20;;;9.60;99.90;;;;;;4999920;28;20070;-77
2023/04/01 02:45:47;;;;;;;15.57;6.35;;;9.60;99.90;;;;;;4989595;28;20073;-77
2023/04/01 02:48:13;;;;;;;13.60;6.57;;;9.60;99.90;;;;;;4969311;28;20050;-77
2023/04/01 02:50:40;;;;;;;15.32;6.53;;;9.60;99.90;;;;;;4973742;28;20030;-77
2023/04/01 02:53:06;;;;;;;;;;;9.60;99.90;;;;;;4985828;28;20042;-77
2023/04/01 02:55:32;;;;;;;15.07;6.25;;;9.60;99.90;;;;;;4998371;28;20297;-77
2023/04/01 02:57:58;;;;;;;15.20;7.50;;;9.60;99.90;;;;;;4971534;28;20406;-77
2023/04/01 03:00:25;;;;;;;12.52;6.50;;;9.60;99.90;;;;;;4988898;28;20038;-77
2023/04/01 03:02:51;;;;;;;14.77;6.63;;;9.60;99.90;;;;;;4971051;28;20053;-76
2023/04/01 03:05:16;;;;;;;15.77;7.65;;;9.60;99.90;;;;;;4962738;28;20034;-77
2023/04/01 03:07:42;;;;;;;12.93;6.53;;;9.60;99.90;;;;;;4989402;28;20428;-76
2023/04/01 03:10:08;;;;;;;18.27;7.25;;;9.60;99.90;;;;;;4999739;28;20049;-76
2023/04/01 03:12:34;;;;;;;16.45;7.22;;;9.60;99.90;;;;;;4995836;28;20172;-77
2023/04/01 03:15:00;;;;;;;20.17;7.53;;;9.50;99.90;;;;;;4985784;28;20056;-77
2023/04/01 03:17:26;;;;;;;13.60;6.03;;;9.60;99.90;;;;;;4984223;28;20041;-77
2023/04/01 03:19:51;;;;;;;18.10;7.20;;;9.50;99.90;;;;;;4975308;28;20289;-76
2023/04/01 03:22:20;;;;;;;14.63;6.85;;;9.60;99.90;;;;;;4969907;28;20042;-76
2023/04/01 03:24:47;;;;;;;18.85;7.28;;;9.60;99.90;;;;;;4987198;28;20039;-76
2023/04/01 03:27:12;;;;;;;;;;;9.50;99.90;;;;;;4989724;28;20046;-77
2023/04/01 03:29:38;;;;;;;18.20;8.70;;;9.50;99.90;;;;;;4983935;28;19918;-77
2023/04/01 03:32:04;;;;;;;21.13;8.30;;;9.50;99.90;;;;;;4984615;28;20080;-77
2023/04/01 03:34:30;;;;;;;22.40;10.07;;;9.50;99.90;;;;;;4988376;28;20463;-78
2023/04/01 03:36:56;;;;;;;20.65;9.20;;;9.50;99.90;;;;;;4989235;28;20065;-78
2023/04/01 03:39:22;;;;;;;23.85;10.45;;;9.50;99.90;;;;;;4992247;28;20100;-78
2023/04/01 03:41:47;;;;;;;20.92;9.30;;;9.50;99.90;;;;;;4980228;28;20103;-78
2023/04/01 03:44:13;;;;;;;22.45;10.90;;;9.50;99.90;;;;;;4968642;28;20041;-78
2023/04/01 03:46:39;;;;;;;24.13;10.50;;;9.50;99.90;;;;;;4981323;28;20141;-78
2023/04/01 03:49:11;;;;;;;24.15;10.43;;;9.50;99.90;;;;;;4980771;28;20133;-78
2023/04/01 03:51:41;;;;;;;24.33;10.73;;;9.50;99.90;;;;;;5002483;28;20067;-78
2023/04/01 03:54:07;;;;;;;23.35;9.90;;;9.50;99.90;;;;;;4987779;28;20503;-78
2023/04/01 03:56:33;;;;;;;24.27;11.73;;;9.50;99.90;;;;;;5005946;28;20046;-78
2023/04/01 03:59:03;;;;;;;24.63;9.93;;;9.50;99.90;;;;;;4985468;28;20037;-78
2023/04/01 04:01:29;;;;;;;24.95;9.57;;;9.50;99.90;;;;;;5002150;28;20203;-78
2023/04/01 04:03:56;;;;;;;25.20;9.95;;;9.50;99.90;;;;;;4985996;28;20129;-78
2023/04/01 04:06:21;;;;;;;;;;;9.50;99.90;;;;;;4984175;28;20042;-78
2023/04/01 04:08:47;;;;;;;23.88;9.80;;;9.50;99.90;;;;;;4981690;28;19980;-78
2023/04/01 04:11:13;;;;;;;26.23;10.48;;;9.50;99.90;;;;;;4984036;28;20042;-78
2023/04/01 04:13:39;;;;;;;23.58;9.63;;;9.50;99.90;;;;;;5000626;28;20486;-78
2023/04/01 04:16:05;;;;;;;24.13;10.38;;;9.50;99.90;;;;;;4992397;28;20057;-78
2023/04/01 04:18:31;;;;;;;20.92;9.57;;;9.50;99.90;;;;;;4985591;28;20037;-78
2023/04/01 04:20:57;;;;;;;20.03;9.33;;;9.50;99.90;;;;;;4976546;28;20448;-78
2023/04/01 04:23:22;;;;;;;26.35;10.70;;;9.40;99.90;;;;;;5001514;28;20301;-78
2023/04/01 04:26:01;;;;;;;23.80;10.77;;;9.50;99.90;;;;;;4986301;28;20349;-78
2023/04/01 04:28:27;;;;;;;25.20;10.77;;;9.50;99.90;;;;;;5001788;28;20368;-78
2023/04/01 04:30:53;;;;;;;;;;;9.50;99.90;;;;;;4985286;28;20042;-78
2023/04/01 04:33:19;;;;;;;25.95;11.15;;;9.50;99.90;;;;;;4983018;28;19979;-78
2023/04/01 04:35:45;;;;;;;26.20;10.85;;;9.50;99.90;;;;;;5004273;28;20068;-78
2023/04/01 04:38:11;;;;;;;24.35;10.40;;;9.50;99.90;;;;;;4983897;28;20042;-78
2023/04/01 04:40:38;;;;;;;24.88;11.10;;;9.50;99.90;;;;;;4975979;28;20051;-78
2023/04/01 04:43:04;;;;;;;30.40;12.02;;;9.50;99.90;;;;;;5004418;28;20038;-78
2023/04/01 04:45:30;;;;;;;27.95;11.18;;;9.50;99.90;;;;;;5001307;28;20042;-78
2023/04/01 04:47:56;;;;;;;27.58;12.40;;;9.50;99.90;;;;;;4985053;28;20050;-78
2023/04/01 04:50:23;;;;;;;27.05;12.88;;;9.50;99.90;;;;;;4986744;28;20094;-78
2023/04/01 04:52:49;;;;;;;21.60;10.88;;;9.50;99.90;;;;;;5001621;28;20037;-78
2023/04/01 04:55:15;;;;;;;26.60;10.50;;;9.50;99.90;;;;;;4964223;28;20039;-78
2023/04/01 04:57:43;;;;;;;24.17;11.15;;;9.50;99.90;;;;;;4981698;28;20085;-78
2023/04/01 05:00:12;;;;;;;24.38;10.70;;;9.50;99.90;;;;;;4980833;28;20076;-78
2023/04/01 05:02:38;;;;;;;24.17;11.13;;;9.50;99.90;;;;;;4995914;28;20049;-78
2023/04/01 05:05:04;;;;;;;25.35;10.52;;;9.50;99.90;;;;;;5001344;28;20406;-78
2023/04/01 05:07:30;;;;;;;25.85;10.57;;;9.50;99.90;;;;;;4985131;28;20038;-78
2023/04/01 05:09:56;;;;;;;24.23;10.80;;;9.50;99.90;;;;;;4988626;28;20041;-78
2023/04/01 05:12:22;;;;;;;25.23;10.98;;;9.50;99.90;;;;;;4966977;28;20494;-78
2023/04/01 05:14:47;;;;;;;22.70;10.20;;;9.50;99.90;;;;;;4983626;28;20050;-78
2023/04/01 05:17:13;;;;;;;20.92;10.15;;;9.50;99.90;;;;;;4987244;28;20116;-78
2023/04/01 05:19:39;;;;;;;25.75;11.20;;;9.50;99.90;;;;;;5000975;28;20442;-78
2023/04/01 05:22:06;;;;;;;21.65;9.93;;;9.50;99.90;;;;;;4986723;28;20481;-77
2023/04/01 05:24:32;;;;;;;26.00;10.23;;;9.50;99.90;;;;;;4987038;28;20049;-78
2023/04/01 05:26:59;;;;;;;22.65;9.70;;;9.50;99.90;;;;;;4984679;28;20042;-78
2023/04/01 05:29:25;;;;;;;23.38;9.88;;;9.50;99.90;;;;;;5002618;28;20049;-78
2023/04/01 05:31:51;;;;;;;;;;;9.50;99.90;;;;;;5002970;28;20042;-77
2023/04/01 05:34:16;;;;;;;24.92;11.07;;;9.50;99.90;;;;;;4984062;28;20473;-77
2023/04/01 05:36:43;;;;;;;26.55;10.68;;;9.50;99.90;;;;;;4994060;28;20124;-78
2023/04/01 05:39:09;;;;;;;20.67;8.98;;;9.50;99.90;;;;;;4984728;28;20042;-77
2023/04/01 05:41:38;;;;;;;24.60;9.35;;;9.50;99.90;;;;;;4987363;28;20038;-78
2023/04/01 05:44:05;;;;;;;22.65;9.38;;;9.50;99.90;;;;;;4997943;28;20486;-75
2023/04/01 05:46:31;;;;;;;;;;;9.50;99.90;;;;;;4984340;28;20046;-76
2023/04/01 05:48:57;;;;;;;24.55;9.57;;;9.50;99.90;;;;;;5000596;28;19923;-76
2023/04/01 05:51:23;;;;;;;21.63;8.88;;;9.50;99.90;;;;;;5005644;28;20407;-76
2023/04/01 05:53:48;;;;;;;19.58;8.80;;;9.50;99.90;;;;;;5000179;28;20030;-76
2023/04/01 05:56:15;;;;;;;21.50;9.48;;;9.50;99.90;;;;;;5003084;28;20121;-75
2023/04/01 05:58:40;;;;;;;;;;;9.50;99.90;;;;;;5006060;28;20034;-76
2023/04/01 06:01:09;;;;;;;24.55;8.95;;;9.50;99.90;;;;;;4997367;28;19917;-75
2023/04/01 06:03:35;;;;;;;22.42;8.35;;;9.50;99.90;;;;;;5006137;28;20482;-75
2023/04/01 06:06:01;;;;;;;23.42;8.88;;;9.50;99.90;;;;;;5002725;28;20058;-75
2023/04/01 06:08:27;;;;;;;20.02;8.68;;;9.50;99.90;;;;;;4998593;28;20048;-75
2023/04/01 06:11:13;;;;;;;18.92;7.75;;;9.50;99.90;;;;;;4997111;28;20048;-75
2023/04/01 06:13:48;;;;;;;23.70;8.23;;;9.50;99.90;;;;;;4997754;28;20054;-75
2023/04/01 06:16:26;;;;;;;21.17;7.90;;;9.50;99.90;;;;;;5004115;28;20096;-75
2023/04/01 06:19:18;;;;;;;21.40;8.88;;;9.60;99.90;;;;;;5001324;28;20045;-76
2023/04/01 06:22:16;;;;;;;19.05;8.43;;;9.60;99.90;;;;;;4965679;28;20049;-76
2023/04/01 06:25:05;;;;;;;20.05;8.52;;;9.60;99.90;;;;;;4948920;28;20050;-76
2023/04/01 06:27:40;;;;;;;22.67;8.52;;;9.60;99.90;;;;;;4987384;28;20038;-76
2023/04/01 06:30:21;;;;;;;21.23;9.43;;;9.70;99.90;;;;;;4983963;28;20043;-76
2023/04/01 06:33:34;;;;;;;23.90;10.00;;;9.70;99.90;;;;;;4998735;28;20414;-76
2023/04/01 06:36:25;;;;;;;28.23;11.68;;;9.70;99.90;;;;;;4963424;28;20676;-76
2023/04/01 06:39:05;;;;;;;24.65;10.25;;;9.70;99.90;;;;;;4983080;28;20120;-76
2023/04/01 06:42:08;;;;;;;24.58;10.38;;;9.70;99.90;;;;;;4994767;28;20034;-76
2023/04/01 06:45:02;;;;;;;24.27;10.68;;;9.80;99.90;;;;;;5003701;28;20038;-76
2023/04/01 06:47:33;;;;;;;26.27;10.70;;;9.80;99.90;;;;;;4986983;28;20054;-76
2023/04/01 06:50:27;;;;;;;26.92;11.85;;;9.80;99.90;;;;;;5002699;28;20046;-76
2023/04/01 06:53:06;;;;;;;23.58;10.55;;;9.80;99.90;;;;;;5000897;28;20042;-76
2023/04/01 06:55:47;;;;;;;27.15;12.02;;;9.80;99.90;;;;;;5002043;28;20401;-76
2023/04/01 06:58:43;;;;;;;26.95;12.00;;;9.80;99.90;;;;;;5005123;28;20053;-76
2023/04/01 07:01:27;;;;;;;25.75;10.98;;;9.80;99.90;;;;;;4999406;28;20132;-75
2023/04/01 07:04:01;;;;;;;27.50;12.05;;;9.80;99.90;;;;;;4997248;28;20491;-76
2023/04/01 07:06:39;;;;;;;25.60;11.48;;;9.80;99.90;;;;;;4980758;28;20546;-76
2023/04/01 07:09:18;;;;;;;25.15;10.20;;;9.80;99.90;;;;;;4997303;28;20049;-75
2023/04/01 07:11:44;;;;;;;26.25;11.00;;;9.80;99.90;;;;;;4995243;28;20034;-76
2023/04/01 07:14:32;;;;;;;27.10;11.27;;;9.80;99.90;;;;;;4999690;28;20058;-76
2023/04/01 07:17:19;;;;;;;24.75;11.60;;;9.90;99.90;;;;;;4999398;28;20518;-75
2023/04/01 07:20:04;;;;;;;26.90;12.82;;;9.80;99.90;;;;;;4994726;28;20513;-77
2023/04/01 07:22:51;;;;;;;26.77;12.10;;;9.80;99.90;;;;;;5000511;28;20057;-76
2023/04/01 07:25:27;;;;;;;24.48;11.07;;;9.80;99.90;;;;;;5002571;28;20413;-75
2023/04/01 07:27:59;;;;;;;27.23;11.30;;;9.80;99.90;;;;;;5000095;28;20038;-76
2023/04/01 07:30:27;;;;;;;28.45;12.15;;;9.80;99.90;;;;;;4983826;28;20038;-76
2023/04/01 07:33:03;;;;;;;26.67;12.65;;;9.90;99.90;;;;;;5009270;28;20046;-76
2023/04/01 07:35:54;;;;;;;24.67;11.25;;;9.80;99.90;;;;;;5005606;28;20144;-76
2023/04/01 07:38:26;;;;;;;24.02;11.35;;;9.90;99.90;;;;;;4988289;28;20521;-76
2023/04/01 07:41:29;;;;;;;26.13;11.93;;;9.90;99.90;;;;;;4987246;28;20104;-76
2023/04/01 07:44:24;;;;;;;25.50;11.27;;;9.90;99.90;;;;;;5002522;28;20073;-76
2023/04/01 07:47:01;;;;;;;26.17;11.48;;;9.90;99.90;;;;;;4982884;28;20082;-76
2023/04/01 07:50:03;;;;;;;21.55;9.88;;;10.00;99.90;;;;;;4988994;28;20100;-76
2023/04/01 07:52:39;;;;;;;21.30;10.07;;;10.00;99.90;;;;;;5001048;28;20509;-76
2023/04/01 07:55:09;;;;;;;22.40;10.38;;;10.00;99.90;;;;;;5010133;28;20046;-76
2023/04/01 07:58:10;;;;;;;22.63;9.52;;;10.00;99.90;;;;;;4983066;28;20479;-76
2023/04/01 08:00:44;;;;;;;20.88;9.95;;;10.00;99.90;;;;;;5002052;28;20049;-76
2023/04/01 08:03:21;;;;;;;17.25;7.95;;;10.00;99.90;;;;;;5004850;28;20144;-76
2023/04/01 08:05:53;;;;;;;;;;;10.00;99.90;;;;;;4981531;28;20088;-76
2023/04/01 08:08:47;;;;;;;19.30;9.52;;;10.00;99.90;;;;;;5005965;28;19963;-76
2023/04/01 08:11:19;;;;;;;19.52;9.40;;;10.10;99.90;;;;;;4959324;28;20054;-75
2023/04/01 08:14:19;;;;;;;22.88;9.13;;;10.20;99.90;;;;;;5004394;28;20046;-76
2023/04/01 08:17:05;;;;;;;19.50;8.80;;;10.20;99.90;;;;;;4989496;28;20495;-76
2023/04/01 08:19:46;;;;;;;20.27;10.02;;;10.30;99.90;;;;;;4997553;28;20121;-76
2023/04/01 08:22:27;;;;;;;19.90;9.05;;;10.30;99.90;;;;;;4984365;28;20050;-76
2023/04/01 08:24:57;;;;;;;18.20;9.07;;;10.40;99.90;;;;;;5000706;28;20038;-77
2023/04/01 08:27:45;;;;;;;19.80;9.25;;;10.40;99.90;;;;;;4997851;28;20041;-76
2023/04/01 08:30:18;;;;;;;16.67;9.10;;;10.40;99.90;;;;;;5001640;28;20038;-75
2023/04/01 08:33:00;;;;;;;17.67;8.95;;;10.50;99.90;;;;;;5003224;28;20042;-75
2023/04/01 08:35:26;;;;;;;16.85;8.40;;;10.50;99.90;;;;;;4992453;28;20060;-75
2023/04/01 08:37:56;;;;;;;16.67;8.07;;;10.50;99.90;;;;;;4997314;28;20150;-75
2023/04/01 08:40:40;;;;;;;15.82;8.10;;;10.50;99.90;;;;;;4999524;28;21741;-75
2023/04/01 08:43:44;;;;;;;13.60;7.53;;;10.50;99.90;;;;;;4985400;28;20034;-76
2023/04/01 08:46:46;;;;;;;12.77;6.80;;;10.60;99.90;;;;;;4971894;28;20054;-76
2023/04/01 08:49:18;;;;;;;14.98;7.85;;;10.60;99.90;;;;;;5000134;28;20046;-75
2023/04/01 08:51:49;;;;;;;16.45;8.57;;;10.60;99.90;;;;;;5003956;28;20041;-76
2023/04/01 08:54:29;;;;;;;15.68;7.57;;;10.60;99.90;;;;;;4990150;28;20088;-75
2023/04/01 08:57:35;;;;;;;16.13;7.68;;;10.70;99.90;;;;;;5000701;28;20045;-75
2023/04/01 09:00:23;;;;;;;14.77;7.57;;;10.70;99.90;;;;;;4999283;28;20038;-76
2023/04/01 09:03:19;;;;;;;13.40;7.03;;;10.90;99.90;;;;;;4985184;28;20077;-78
2023/04/01 09:06:01;;;;;;;12.10;7.38;;;11.10;99.90;;;;;;5004912;28;20038;-79
2023/04/01 09:08:58;;;;;;;11.32;6.03;;;11.10;99.90;;;;;;5000231;28;20033;-76
2023/04/01 09:12:01;;;;;;;10.82;5.45;;;11.20;99.90;;;;;;4998529;28;20034;-77
2023/04/01 09:14:40;;;;;;;10.52;5.38;;;11.20;99.90;;;;;;5007129;28;20046;-80
2023/04/01 09:17:29;;;;;;;8.82;5.25;;;11.20;99.90;;;;;;5003507;28;20046;-78
2023/04/01 09:20:24;;;;;;;9.05;4.95;;;10.90;99.90;;;;;;4988480;28;20038;-76
2023/04/01 09:23:21;;;;;;;8.05;4.45;;;10.60;99.90;;;;;;4983059;28;20046;-76
2023/04/01 09:26:01;;;;;;;6.28;4.15;;;10.50;99.90;;;;;;5001080;28;20042;-77
2023/04/01 09:28:51;;;;;;;6.53;3.72;;;10.30;99.90;;;;;;4982827;28;20414;-77
2023/04/01 09:31:40;;;;;;;5.70;3.40;;;10.30;99.90;;;;;;5001585;28;20041;-76
2023/04/01 09:34:25;;;;;;;4.95;2.78;;;10.10;99.90;;;;;;4998481;28;20034;-77
2023/04/01 09:37:17;;;;;;;8.10;3.35;;;10.10;99.90;;;;;;5005054;28;20042;-77
2023/04/01 09:39:52;;;;;;;6.82;3.30;;;10.00;99.90;;;;;;5006867;28;20038;-77
2023/04/01 09:42:27;;;;;;;3.90;2.33;;;10.00;99.90;;;;;;5003703;28;20100;-77
2023/04/01 09:45:03;;;;;;;4.35;2.70;;;10.00;99.90;;;;;;4990987;28;20049;-76
2023/04/01 09:47:35;;;;;;;6.20;2.33;;;9.90;99.90;;;;;;5002535;28;20057;-76
2023/04/01 09:50:26;;;;;;;4.55;2.60;;;10.00;99.90;;;;;;5002933;28;20097;-77
2023/04/01 09:53:08;;;;;;;5.85;2.53;;;10.00;99.90;;;;;;4986857;28;20041;-79
2023/04/01 09:56:04;;;;;;;6.57;3.10;;;10.10;99.90;;;;;;5005714;28;20038;-77
2023/04/01 09:59:01;;;;;;;4.50;2.83;;;10.00;99.90;;;;;;4984567;28;20038;-78
2023/04/01 10:02:01;;;;;;;4.63;2.58;;;9.90;99.90;;;;;;5002884;28;20045;-78
2023/04/01 10:04:38;;;;;;;4.28;2.42;;;9.90;99.90;;;;;;5008223;28;20045;-77
2023/04/01 10:07:22;;;;;;;4.32;2.33;;;9.80;99.90;;;;;;5000049;28;20038;-76
2023/04/01 10:10:27;;;;;;;5.35;2.63;;;9.90;99.90;;;;;;4998057;28;20039;-76
2023/04/01 10:13:18;;;;;;;4.72;3.08;;;9.80;99.90;;;;;;4998048;28;20045;-77
2023/04/01 10:16:34;;;;;;;5.05;2.53;;;9.80;99.90;;;;;;4981899;28;20042;-77
2023/04/01 10:19:38;;;;;;;4.22;2.40;;;9.80;99.90;;;;;;4942337;28;20056;-78
2023/04/01 10:22:22;;;;;;;3.58;2.83;;;9.90;99.90;;;;;;5000469;28;20045;-77
2023/04/01 10:25:05;;;;;;;3.60;2.22;;;9.80;99.90;;;;;;5000725;28;20042;-78
2023/04/01 10:27:50;;;;;;;3.72;1.90;;;9.80;99.90;;;;;;5002646;28;20077;-77
2023/04/01 10:30:30;;;;;;;3.70;2.20;;;9.90;99.90;;;;;;4985990;28;20049;-78
2023/04/01 10:33:25;;;;;;;2.88;1.98;;;9.80;99.90;;;;;;5001994;28;20038;-77
2023/04/01 10:36:30;;;;;;;4.63;2.10;;;9.80;99.90;;;;;;4985486;28;20136;-77
2023/04/01 10:39:17;;;;;;;2.72;1.65;;;9.80;99.90;;;;;;4996093;28;20042;-77
2023/04/01 10:41:46;;;;;;;;;;;9.80;99.90;;;;;;4978998;28;20034;-76
2023/04/01 10:44:46;;;;;;;3.72;1.80;;;9.80;99.90;;;;;;4984131;28;19917;-77
2023/04/01 10:47:50;;;;;;;2.55;1.73;;;9.80;99.90;;;;;;5004567;28;20633;-77
2023/04/01 10:50:37;;;;;;;2.72;1.83;;;9.90;99.90;;;;;;4997662;28;20042;-77
2023/04/01 10:53:21;;;;;;;3.03;1.65;;;9.90;99.90;;;;;;4999569;28;20078;-82
2023/04/01 10:56:31;;;;;;;2.63;1.35;;;9.90;99.90;;;;;;5001113;28;20045;-77
2023/04/01 10:59:08;;;;;;;2.13;1.40;;;9.90;99.90;;;;;;4935351;29;20042;-77
2023/04/01 11:01:44;;;;;;;2.05;1.50;;;10.00;99.90;;;;;;4938023;29;20070;-77
2023/04/01 11:04:33;;;;;;;2.95;1.55;;;10.00;99.90;;;;;;4965071;28;20133;-78
2023/04/01 11:07:13;;;;;;;2.17;1.52;;;10.00;99.90;;;;;;4987292;28;20115;-76
2023/04/01 11:09:45;;;;;;;3.95;1.73;;;9.80;99.90;;;;;;4992234;28;20159;-77
2023/04/01 11:12:38;;;;;;;2.88;1.60;;;9.80;99.90;;;;;;5000743;28;20502;-80
2023/04/01 11:15:19;;;;;;;2.70;2.00;;;9.90;99.90;;;;;;4977340;28;20442;-84
2023/04/01 11:18:15;;;;;;;3.03;1.95;;;9.80;99.90;;;;;;4993662;28;20045;-83
2023/04/01 11:20:56;;;;;;;3.45;2.00;;;9.80;99.90;;;;;;4993573;28;20038;-83
2023/04/01 11:23:46;;;;;;;5.15;2.40;;;9.80;99.90;;;;;;4976891;28;20118;-84
2023/04/01 11:26:33;;;;;;;4.72;2.65;;;9.80;99.90;;;;;;5002655;28;20115;-84
2023/04/01 11:29:20;;;;;;;4.60;2.85;;;9.70;99.90;;;;;;4976484;28;20069;-83
2023/04/01 11:31:46;;;;;;;5.23;2.50;;;9.70;99.90;;;;;;4995696;28;20435;-83
2023/04/01 11:34:37;;;;;;;4.50;2.28;;;9.70;99.90;;;;;;4989957;28;20128;-84
2023/04/01 11:37:26;;;;;;;3.58;2.13;;;9.80;99.90;;;;;;4995586;28;20073;-83
2023/04/01 11:39:57;;;;;;;3.65;2.08;;;9.60;99.90;;;;;;5001516;28;20034;-83
2023/04/01 11:42:41;;;;;;;3.13;2.15;;;9.70;99.90;;;;;;5011343;28;20050;-84
2023/04/01 11:45:36;;;;;;;4.15;2.10;;;9.70;99.90;;;;;;4992384;28;20664;-83
2023/04/01 11:48:11;;;;;;;3.13;1.83;;;9.90;99.90;;;;;;4978214;28;20070;-84
2023/04/01 11:50:40;;;;;;;2.92;2.00;;;9.90;99.90;;;;;;4976124;28;20038;-84
2023/04/01 11:53:15;;;;;;;2.85;2.00;;;9.90;99.90;;;;;;4980880;28;20058;-84
2023/04/01 11:55:50;;;;;;;2.50;1.73;;;10.00;99.90;;;;;;5012054;28;20038;-84
2023/04/01 11:58:53;;;;;;;3.30;2.30;;;10.00;99.90;;;;;;4979050;28;20092;-84
2023/04/01 12:02:01;;;;;;;3.83;2.20;;;10.00;99.90;;;;;;5006298;28;20158;-83
2023/04/01 12:04:56;;;;;;;3.10;2.08;;;10.10;99.90;;;;;;4948770;28;20069;-84
2023/04/01 12:07:25;;;;;;;2.55;1.40;;;10.10;99.90;;;;;;4991624;28;20050;-84
2023/04/01 12:10:25;;;;;;;2.53;1.73;;;10.20;99.90;;;;;;4992772;28;20510;-84
2023/04/01 12:13:22;;;;;;;4.60;1.77;;;10.20;99.90;;;;;;5012046;28;20049;-84
2023/04/01 12:15:57;;;;;;;3.13;1.73;;;10.20;99.90;;;;;;5011936;28;20053;-84
2023/04/01 12:18:29;;;;;;;2.95;1.70;;;10.20;99.90;;;;;;5011584;28;20045;-84
2023/04/01 12:21:17;;;;;;;2.10;1.33;;;10.10;99.90;;;;;;4995951;28;20052;-84
2023/04/01 12:24:04;;;;;;;2.53;1.63;;;10.00;99.90;;;;;;5011823;28;20507;-84
2023/04/01 12:26:43;;;;;;;3.45;1.50;;;10.00;99.90;;;;;;5012231;28;20521;-83
2023/04/01 12:29:19;;;;;;;2.20;1.50;;;10.00;99.90;;;;;;5002255;28;20110;-84
2023/04/01 12:32:03;;;;;;;3.28;1.65;;;10.00;99.90;;;;;;4995745;28;20042;-84
2023/04/01 12:34:36;;;;;;;2.35;1.83;;;10.10;99.90;;;;;;4993000;28;20038;-84
2023/04/01 12:37:20;;;;;;;2.35;1.60;;;10.10;99.90;;;;;;4994107;28;20037;-84
2023/04/01 12:39:55;;;;;;;2.13;1.52;;;10.10;99.90;;;;;;5002962;28;20560;-84
2023/04/01 12:42:47;;;;;;;1.65;1.30;;;10.10;99.90;;;;;;4993407;28;20046;-84
2023/04/01 12:45:29;;;;;;;4.20;1.58;;;10.10;99.90;;;;;;5011086;28;20387;-84
2023/04/01 12:48:23;;;;;;;2.25;1.52;;;10.10;99.90;;;;;;5011117;28;20054;-84
2023/04/01 12:51:10;;;;;;;2.30;1.75;;;10.00;99.90;;;;;;5002317;28;20493;-84
2023/04/01 12:54:08;;;;;;;2.30;1.60;;;9.90;99.90;;;;;;5006052;28;20525;-84
2023/04/01 12:56:51;;;;;;;3.08;1.35;;;9.80;99.90;;;;;;4925864;28;20039;-84
2023/04/01 12:59:24;;;;;;;3.38;1.90;;;9.80;99.90;;;;;;5010393;28;20045;-84
2023/04/01 13:02:14;;;;;;;2.05;1.63;;;9.80;99.90;;;;;;4992138;28;20045;-85
2023/04/01 13:05:01;;;;;;;3.13;1.80;;;9.90;99.90;;;;;;5003236;28;20106;-84
2023/04/01 13:07:39;;;;;;;2.00;1.50;;;9.80;99.90;;;;;;4990750;28;20140;-84
2023/04/01 13:10:30;;;;;;;4.38;2.17;;;9.80;99.90;;;;;;4997348;28;20056;-84
2023/04/01 13:13:14;;;;;;;3.20;2.28;;;9.90;99.90;;;;;;5011034;28;20077;-84
2023/04/01 13:16:00;;;;;;;7.97;4.00;;;9.90;99.90;;;;;;4995927;28;20046;-84
2023/04/01 13:18:55;;;;;;;7.85;4.18;;;10.00;99.90;;;;;;4991258;28;20116;-84
2023/04/01 13:21:30;;;;;;;6.82;4.60;;;10.00;99.90;;;;;;5007490;28;20061;-84
2023/04/01 13:24:28;;;;;;;7.45;5.38;;;9.90;99.90;;;;;;5010671;28;20495;-85
2023/04/01 13:27:35;;;;;;;18.48;12.43;;;9.90;99.90;;;;;;4990716;28;20038;-84
2023/04/01 13:30:19;;;;;;;8.85;7.97;;;9.90;99.90;;;;;;4958274;28;20099;-84
2023/04/01 13:33:15;;;;;;;4.00;3.30;;;9.80;99.90;;;;;;4986104;28;20395;-84
2023/04/01 13:36:07;;;;;;;3.42;2.45;;;9.90;99.90;;;;;;4990731;28;20042;-85
2023/04/01 13:38:45;;;;;;;3.25;2.58;;;9.90;99.90;;;;;;4995494;28;20038;-84
2023/04/01 13:41:32;;;;;;;3.15;2.30;;;10.00;99.90;;;;;;4991478;28;20499;-84